createdAt,value
2023-04-26T00:01:27.585Z,3.60
2023-04-26T00:03:57.472Z,3.70
2023-04-26T00:06:28.010Z,3.60
2023-04-26T00:08:57.781Z,3.70
2023-04-26T00:11:27.631Z,3.60
2023-04-26T00:13:59.024Z,3.40
2023-04-26T00:16:30.130Z,3.40
2023-04-26T00:19:00.168Z,3.30
2023-04-26T00:21:29.791Z,3.20
2023-04-26T00:23:59.838Z,3.20
2023-04-26T00:26:29.904Z,3.20
2023-04-26T00:28:59.857Z,3.20
2023-04-26T00:31:31.325Z,3.20
2023-04-26T00:34:01.141Z,3.30
2023-04-26T00:36:32.298Z,3.30
2023-04-26T00:39:01.826Z,3.30
2023-04-26T00:41:31.586Z,3.20
2023-04-26T00:44:01.484Z,3.10
2023-04-26T00:46:32.563Z,3.00
2023-04-26T00:49:03.539Z,2.90
2023-04-26T00:51:33.352Z,2.90
2023-04-26T00:54:05.382Z,2.90
2023-04-26T00:56:36.442Z,2.90
2023-04-26T00:59:06.566Z,3.00
2023-04-26T01:01:38.264Z,3.00
2023-04-26T01:04:08.481Z,3.00
2023-04-26T01:06:38.692Z,2.90
2023-04-26T01:09:11.293Z,2.80
2023-04-26T01:11:41.801Z,2.80
2023-04-26T01:14:12.031Z,2.70
2023-04-26T01:16:46.787Z,2.60
2023-04-26T01:19:16.840Z,2.40
2023-04-26T01:21:46.678Z,2.30
2023-04-26T01:24:17.659Z,2.40
2023-04-26T01:26:48.175Z,2.30
2023-04-26T01:29:24.250Z,2.30
2023-04-26T01:31:54.086Z,2.20
2023-04-26T01:34:21.992Z,2.30
2023-04-26T01:36:51.858Z,2.30
2023-04-26T01:39:23.557Z,2.40
2023-04-26T01:41:53.120Z,2.40
2023-04-26T01:44:22.878Z,2.40
2023-04-26T01:46:52.712Z,2.30
2023-04-26T01:49:22.559Z,2.20
2023-04-26T01:51:52.254Z,2.20
2023-04-26T01:54:23.293Z,2.10
2023-04-26T01:56:53.099Z,2.10
2023-04-26T01:59:22.850Z,2.00
2023-04-26T02:01:52.665Z,1.90
2023-04-26T02:04:24.014Z,1.90
2023-04-26T02:06:53.829Z,1.90
2023-04-26T02:09:24.882Z,1.90
2023-04-26T02:11:54.697Z,1.80
2023-04-26T02:14:24.558Z,1.70
2023-04-26T02:16:54.343Z,1.70
2023-04-26T02:19:24.095Z,1.70
2023-04-26T02:21:55.658Z,1.60
2023-04-26T02:24:26.642Z,1.50
2023-04-26T02:26:57.631Z,1.50
2023-04-26T02:29:42.212Z,1.60
2023-04-26T02:32:12.597Z,1.80
2023-04-26T02:34:42.937Z,1.80
2023-04-26T02:37:12.614Z,1.90
2023-04-26T02:39:43.729Z,1.90
2023-04-26T02:42:13.519Z,1.90
2023-04-26T02:44:43.232Z,1.90
2023-04-26T02:47:13.087Z,2.00
2023-04-26T02:49:42.820Z,1.80
2023-04-26T02:52:12.596Z,1.70
2023-04-26T02:54:43.736Z,1.50
2023-04-26T02:57:13.489Z,1.40
2023-04-26T02:59:43.924Z,1.20
2023-04-26T03:02:13.750Z,1.20
2023-04-26T03:04:43.624Z,1.20
2023-04-26T03:07:13.346Z,1.20
2023-04-26T03:09:44.294Z,1.40
2023-04-26T03:12:14.181Z,1.50
2023-04-26T03:14:43.954Z,1.60
2023-04-26T03:17:13.754Z,1.70
2023-04-26T03:19:43.526Z,1.60
2023-04-26T03:22:16.048Z,1.60
2023-04-26T03:24:47.596Z,1.60
2023-04-26T03:27:17.097Z,1.50
2023-04-26T03:29:46.874Z,1.40
2023-04-26T03:32:16.688Z,1.50
2023-04-26T03:34:48.608Z,1.60
2023-04-26T03:37:18.466Z,1.30
2023-04-26T03:39:50.573Z,1.10
2023-04-26T03:42:21.259Z,1.00
2023-04-26T03:44:50.703Z,0.90
2023-04-26T03:47:20.441Z,0.90
2023-04-26T03:49:50.231Z,0.80
2023-04-26T03:52:20.133Z,0.80
2023-04-26T03:54:51.009Z,0.80
2023-04-26T03:57:20.962Z,0.90
2023-04-26T03:59:50.530Z,1.00
2023-04-26T04:02:20.405Z,1.10
2023-04-26T04:04:50.344Z,1.00
2023-04-26T04:07:19.999Z,0.90
2023-04-26T04:09:51.218Z,0.90
2023-04-26T04:12:22.940Z,0.90
2023-04-26T04:14:52.707Z,1.00
2023-04-26T04:17:22.596Z,0.90
2023-04-26T04:19:52.479Z,0.90
2023-04-26T04:22:22.322Z,0.90
2023-04-26T04:24:54.356Z,1.00
2023-04-26T04:27:23.857Z,1.00
2023-04-26T04:29:55.108Z,1.10
2023-04-26T04:32:24.850Z,1.30
2023-04-26T04:34:54.770Z,1.20
2023-04-26T04:37:25.529Z,1.40
2023-04-26T04:39:56.904Z,1.30
2023-04-26T04:42:28.226Z,1.50
2023-04-26T04:44:59.612Z,1.50
2023-04-26T04:47:29.399Z,1.50
2023-04-26T04:49:59.058Z,1.40
2023-04-26T04:52:28.927Z,1.40
2023-04-26T04:55:00.008Z,1.30
2023-04-26T04:57:29.786Z,1.40
2023-04-26T05:00:03.511Z,1.40
2023-04-26T05:02:33.360Z,1.50
2023-04-26T05:05:04.537Z,1.70
2023-04-26T05:07:34.768Z,1.60
2023-04-26T05:10:06.469Z,1.80
2023-04-26T05:12:36.717Z,2.00
2023-04-26T05:15:07.779Z,2.10
2023-04-26T05:17:37.584Z,2.20
2023-04-26T05:20:08.867Z,2.70
2023-04-26T05:22:39.741Z,3.60
2023-04-26T05:25:13.817Z,4.80
2023-04-26T05:27:45.467Z,6.40
2023-04-26T05:30:16.565Z,7.40
2023-04-26T05:32:46.593Z,8.60
2023-04-26T05:35:16.376Z,9.50
2023-04-26T05:37:46.238Z,9.90
2023-04-26T05:40:17.975Z,9.90
2023-04-26T05:42:47.842Z,10.10
2023-04-26T05:45:17.649Z,10.20
2023-04-26T05:47:48.051Z,9.90
2023-04-26T05:50:17.800Z,10.60
2023-04-26T05:52:47.719Z,11.00
2023-04-26T05:55:20.041Z,11.10
2023-04-26T05:57:50.004Z,11.10
2023-04-26T06:00:23.367Z,10.90
2023-04-26T06:02:53.078Z,10.60
2023-04-26T06:05:23.401Z,10.60
2023-04-26T06:07:53.886Z,9.60
2023-04-26T06:10:25.217Z,8.90
2023-04-26T06:12:54.913Z,9.40
2023-04-26T06:15:24.711Z,9.10
2023-04-26T06:17:54.565Z,9.00
2023-04-26T06:20:25.350Z,9.40
2023-04-26T06:22:55.512Z,9.60
2023-04-26T06:25:26.441Z,9.90
2023-04-26T06:27:56.430Z,10.30
2023-04-26T06:30:26.331Z,10.70
2023-04-26T06:32:56.110Z,10.90
2023-04-26T06:35:26.013Z,11.00
2023-04-26T06:37:55.660Z,10.90
2023-04-26T06:40:26.748Z,10.90
2023-04-26T06:42:57.110Z,10.70
2023-04-26T06:45:27.038Z,10.80
2023-04-26T06:47:57.178Z,10.70
2023-04-26T06:50:26.882Z,10.00
2023-04-26T06:52:56.735Z,10.00
2023-04-26T06:55:27.997Z,10.00
2023-04-26T06:57:57.937Z,10.00
2023-04-26T07:00:28.123Z,9.70
2023-04-26T07:02:58.110Z,9.60
2023-04-26T07:05:28.152Z,9.40
2023-04-26T07:07:57.988Z,9.40
2023-04-26T07:10:29.386Z,9.30
2023-04-26T07:12:59.174Z,9.30
2023-04-26T07:15:29.002Z,9.30
2023-04-26T07:17:58.799Z,9.20
2023-04-26T07:20:28.630Z,9.10
2023-04-26T07:22:58.563Z,9.20
2023-04-26T07:25:29.668Z,9.20
2023-04-26T07:27:59.384Z,9.10
2023-04-26T07:30:29.029Z,9.30
2023-04-26T07:32:58.972Z,9.10
2023-04-26T07:35:28.705Z,9.20
2023-04-26T07:37:58.438Z,9.40
2023-04-26T07:40:29.724Z,9.60
2023-04-26T07:42:59.305Z,9.60
2023-04-26T07:45:29.389Z,9.60
2023-04-26T07:47:59.135Z,9.20
2023-04-26T07:50:28.912Z,9.40
2023-04-26T07:52:58.785Z,9.40
2023-04-26T07:55:29.776Z,9.40
2023-04-26T07:57:59.494Z,9.60
2023-04-26T08:00:29.530Z,9.90
2023-04-26T08:02:59.394Z,9.90
2023-04-26T08:05:29.117Z,10.30
2023-04-26T08:08:00.694Z,10.40
2023-04-26T08:10:32.064Z,10.40
2023-04-26T08:13:03.421Z,10.00
2023-04-26T08:15:33.645Z,9.90
2023-04-26T08:18:03.252Z,10.50
2023-04-26T08:20:33.575Z,10.60
2023-04-26T08:23:03.507Z,10.60
2023-04-26T08:25:34.968Z,10.80
2023-04-26T08:28:05.119Z,10.80
2023-04-26T08:30:34.983Z,10.60
2023-04-26T08:33:04.687Z,10.90
2023-04-26T08:35:34.636Z,11.10
2023-04-26T08:38:04.161Z,11.10
2023-04-26T08:40:35.340Z,10.80
2023-04-26T08:43:05.158Z,10.90
2023-04-26T08:45:36.558Z,11.10
2023-04-26T08:48:11.795Z,11.20
2023-04-26T08:50:44.167Z,11.30
2023-04-26T08:53:17.830Z,11.40
2023-04-26T08:55:52.242Z,11.60
2023-04-26T08:58:22.244Z,11.60
2023-04-26T09:00:53.922Z,11.70
2023-04-26T09:03:27.044Z,11.90
2023-04-26T09:05:57.181Z,11.70
2023-04-26T09:08:28.181Z,11.70
2023-04-26T09:10:59.058Z,12.00
2023-04-26T09:13:31.299Z,12.00
2023-04-26T09:16:02.686Z,12.30
2023-04-26T09:18:34.620Z,12.50
2023-04-26T09:21:09.552Z,11.40
2023-04-26T09:23:57.519Z,11.80
2023-04-26T09:26:28.949Z,11.70
2023-04-26T09:29:15.228Z,11.60
2023-04-26T09:31:49.298Z,11.40
2023-04-26T09:34:19.548Z,11.60
2023-04-26T09:36:57.007Z,12.00
2023-04-26T09:39:33.618Z,11.90
2023-04-26T09:42:05.269Z,12.20
2023-04-26T09:44:34.950Z,12.50
2023-04-26T09:47:07.006Z,12.40
2023-04-26T09:49:48.544Z,12.00
2023-04-26T09:52:19.307Z,12.00
2023-04-26T09:54:50.127Z,11.90
2023-04-26T09:57:23.482Z,11.90
2023-04-26T09:59:56.183Z,11.90
2023-04-26T10:02:27.714Z,11.90
2023-04-26T10:05:00.186Z,12.00
2023-04-26T10:07:31.176Z,12.00
2023-04-26T10:10:02.193Z,11.90
2023-04-26T10:12:33.346Z,11.50
2023-04-26T10:15:04.265Z,11.70
2023-04-26T10:17:34.041Z,12.20
2023-04-26T10:20:06.095Z,12.40
2023-04-26T10:22:38.255Z,12.20
2023-04-26T10:25:09.002Z,11.50
2023-04-26T10:27:53.320Z,11.90
2023-04-26T10:30:25.744Z,12.40
2023-04-26T10:33:17.558Z,12.50
2023-04-26T10:36:12.325Z,12.40
2023-04-26T10:38:44.132Z,11.70
2023-04-26T10:41:35.933Z,11.90
2023-04-26T10:44:44.925Z,12.60
2023-04-26T10:47:28.043Z,13.20
2023-04-26T10:50:06.238Z,13.40
2023-04-26T10:52:36.629Z,13.50
2023-04-26T10:55:07.711Z,13.10
2023-04-26T10:57:50.826Z,13.10
2023-04-26T11:00:32.315Z,13.10
2023-04-26T11:03:06.433Z,13.20
2023-04-26T11:05:36.180Z,13.30
2023-04-26T11:08:09.399Z,13.20
2023-04-26T11:10:42.526Z,13.00
2023-04-26T11:13:12.928Z,13.10
2023-04-26T11:15:44.198Z,13.20
2023-04-26T11:18:13.689Z,13.20
2023-04-26T11:20:43.631Z,13.20
2023-04-26T11:23:13.723Z,13.30
2023-04-26T11:25:43.296Z,13.60
2023-04-26T11:28:13.092Z,13.60
2023-04-26T11:30:44.672Z,13.80
2023-04-26T11:33:23.080Z,13.40
2023-04-26T11:35:53.607Z,13.50
2023-04-26T11:38:25.808Z,13.60
2023-04-26T11:41:00.817Z,13.20
2023-04-26T11:43:36.344Z,13.30
2023-04-26T11:46:09.097Z,13.40
2023-04-26T11:48:40.885Z,13.40
2023-04-26T11:51:11.913Z,12.80
2023-04-26T11:53:43.426Z,13.00
2023-04-26T11:56:20.636Z,13.40
2023-04-26T11:58:52.082Z,13.40
2023-04-26T12:01:27.728Z,13.10
2023-04-26T12:03:59.356Z,13.00
2023-04-26T12:06:31.161Z,13.20
2023-04-26T12:09:02.342Z,13.70
2023-04-26T12:11:32.118Z,13.60
2023-04-26T12:14:01.908Z,13.50
2023-04-26T12:16:33.238Z,13.60
2023-04-26T12:19:05.738Z,13.80
2023-04-26T12:21:43.647Z,14.00
2023-04-26T12:24:26.214Z,13.30
2023-04-26T12:26:56.975Z,12.70
2023-04-26T12:29:27.866Z,13.10
2023-04-26T12:31:59.270Z,13.60
2023-04-26T12:34:28.912Z,12.90
2023-04-26T12:36:58.652Z,12.60
2023-04-26T12:39:28.477Z,12.90
2023-04-26T12:41:58.101Z,13.40
2023-04-26T12:44:28.210Z,13.90
2023-04-26T12:46:59.055Z,14.20
2023-04-26T12:49:29.594Z,14.50
2023-04-26T12:51:59.374Z,13.80
2023-04-26T12:54:29.234Z,13.60
2023-04-26T12:56:58.962Z,13.90
2023-04-26T12:59:28.905Z,14.20
2023-04-26T13:01:59.781Z,13.50
2023-04-26T13:04:29.918Z,13.50
2023-04-26T13:06:59.987Z,13.80
2023-04-26T13:09:29.794Z,13.90
2023-04-26T13:11:59.565Z,14.10
2023-04-26T13:14:29.326Z,14.50
2023-04-26T13:17:00.513Z,14.50
2023-04-26T13:19:30.321Z,14.70
2023-04-26T13:22:00.251Z,14.80
2023-04-26T13:24:29.794Z,15.10
2023-04-26T13:26:59.594Z,14.70
2023-04-26T13:29:29.137Z,15.10
2023-04-26T13:32:00.362Z,15.00
2023-04-26T13:34:30.698Z,14.70
2023-04-26T13:37:01.148Z,14.60
2023-04-26T13:39:31.674Z,14.70
2023-04-26T13:42:02.112Z,14.60
2023-04-26T13:44:32.039Z,14.50
2023-04-26T13:47:03.135Z,14.40
2023-04-26T13:49:32.930Z,14.70
2023-04-26T13:52:02.673Z,14.00
2023-04-26T13:54:32.382Z,13.90
2023-04-26T13:57:02.697Z,14.20
2023-04-26T13:59:32.191Z,14.50
2023-04-26T14:02:03.618Z,14.60
2023-04-26T14:04:33.699Z,14.60
2023-04-26T14:07:03.632Z,14.60
2023-04-26T14:09:33.371Z,14.40
2023-04-26T14:12:08.383Z,14.10
2023-04-26T14:14:38.444Z,14.10
2023-04-26T14:17:09.579Z,13.90
2023-04-26T14:19:39.310Z,14.10
2023-04-26T14:22:09.926Z,14.10
2023-04-26T14:24:39.462Z,14.00
2023-04-26T14:27:09.230Z,14.30
2023-04-26T14:29:38.986Z,14.30
2023-04-26T14:32:10.623Z,14.40
2023-04-26T14:34:40.465Z,13.90
2023-04-26T14:37:10.353Z,13.50
2023-04-26T14:39:39.959Z,13.60
2023-04-26T14:42:09.790Z,13.80
2023-04-26T14:44:39.583Z,13.90
2023-04-26T14:47:10.714Z,14.00
2023-04-26T14:49:41.107Z,13.90
2023-04-26T14:52:10.707Z,13.70
2023-04-26T14:54:41.383Z,13.60
2023-04-26T14:57:11.786Z,13.60
2023-04-26T14:59:42.099Z,13.60
2023-04-26T15:02:13.094Z,13.40
2023-04-26T15:04:43.111Z,13.30
2023-04-26T15:07:24.478Z,13.50
2023-04-26T15:09:58.348Z,13.70
2023-04-26T15:12:28.045Z,13.90
2023-04-26T15:14:57.835Z,13.40
2023-04-26T15:17:29.271Z,13.20
2023-04-26T15:19:58.812Z,13.50
2023-04-26T15:22:28.723Z,13.70
2023-04-26T15:24:58.523Z,13.90
2023-04-26T15:27:28.342Z,14.00
2023-04-26T15:29:58.680Z,14.20
2023-04-26T15:32:29.605Z,14.40
2023-04-26T15:34:59.445Z,14.20
2023-04-26T15:37:29.303Z,14.40
2023-04-26T15:39:59.161Z,14.30
2023-04-26T15:42:29.046Z,14.20
2023-04-26T15:44:58.930Z,14.10
2023-04-26T15:47:29.869Z,13.90
2023-04-26T15:50:03.484Z,13.80
2023-04-26T15:52:35.282Z,13.70
2023-04-26T15:55:08.219Z,13.50
2023-04-26T15:57:37.993Z,13.50
2023-04-26T16:00:09.781Z,13.40
2023-04-26T16:02:40.751Z,13.50
2023-04-26T16:05:11.207Z,13.40
2023-04-26T16:07:41.391Z,13.40
2023-04-26T16:10:13.456Z,13.40
2023-04-26T16:12:44.471Z,13.40
2023-04-26T16:15:14.625Z,13.30
2023-04-26T16:17:45.768Z,13.20
2023-04-26T16:20:15.626Z,12.70
2023-04-26T16:22:45.480Z,12.70
2023-04-26T16:25:16.642Z,12.60
2023-04-26T16:27:46.581Z,12.80
2023-04-26T16:30:17.527Z,12.90
2023-04-26T16:32:48.467Z,12.90
2023-04-26T16:35:18.960Z,12.80
2023-04-26T16:37:48.735Z,12.80
2023-04-26T16:40:18.493Z,12.70
2023-04-26T16:42:48.397Z,12.50
2023-04-26T16:45:18.229Z,12.50
2023-04-26T16:47:49.499Z,12.50
2023-04-26T16:50:19.020Z,12.50
2023-04-26T16:52:49.080Z,12.40
2023-04-26T16:55:22.173Z,12.00
2023-04-26T16:57:52.156Z,12.30
2023-04-26T17:00:21.803Z,12.20
2023-04-26T17:02:53.569Z,12.40
2023-04-26T17:05:23.195Z,12.50
2023-04-26T17:07:53.017Z,12.50
2023-04-26T17:10:22.794Z,12.60
2023-04-26T17:12:52.682Z,12.30
2023-04-26T17:15:22.586Z,12.20
2023-04-26T17:17:53.734Z,12.00
2023-04-26T17:20:23.803Z,12.10
2023-04-26T17:22:53.595Z,12.10
2023-04-26T17:25:24.542Z,12.20
2023-04-26T17:27:54.627Z,12.20
2023-04-26T17:30:24.312Z,12.10
2023-04-26T17:32:55.507Z,11.90
2023-04-26T17:35:25.378Z,11.80
2023-04-26T17:37:55.243Z,11.70
2023-04-26T17:40:25.093Z,11.70
2023-04-26T17:42:54.821Z,11.60
2023-04-26T17:45:24.518Z,11.60
2023-04-26T17:47:55.970Z,11.40
2023-04-26T17:50:25.548Z,11.30
2023-04-26T17:52:55.409Z,11.20
2023-04-26T17:55:25.038Z,11.10
2023-04-26T17:57:54.815Z,11.00
2023-04-26T18:00:24.606Z,11.00
2023-04-26T18:02:56.203Z,10.90
2023-04-26T18:05:26.038Z,10.60
2023-04-26T18:07:56.106Z,10.50
2023-04-26T18:10:25.819Z,10.40
2023-04-26T18:12:55.757Z,10.30
2023-04-26T18:15:25.468Z,10.40
2023-04-26T18:17:56.445Z,10.40
2023-04-26T18:20:26.076Z,9.70
2023-04-26T18:22:55.873Z,9.60
2023-04-26T18:25:25.686Z,9.60
2023-04-26T18:27:55.716Z,9.80
2023-04-26T18:30:25.676Z,9.90
2023-04-26T18:32:56.980Z,9.90
2023-04-26T18:35:26.839Z,9.90
2023-04-26T18:37:57.121Z,9.90
2023-04-26T18:40:26.921Z,9.90
2023-04-26T18:42:57.268Z,9.90
2023-04-26T18:45:27.089Z,9.70
2023-04-26T18:47:58.398Z,9.70
2023-04-26T18:50:28.389Z,9.80
2023-04-26T18:52:58.454Z,9.80
2023-04-26T18:55:27.948Z,9.90
2023-04-26T18:57:57.786Z,9.80
2023-04-26T19:00:28.568Z,9.80
2023-04-26T19:02:59.665Z,9.70
2023-04-26T19:05:29.400Z,9.50
2023-04-26T19:07:59.217Z,9.60
2023-04-26T19:10:29.030Z,9.50
2023-04-26T19:12:58.759Z,9.60
2023-04-26T19:15:28.633Z,9.40
2023-04-26T19:17:59.829Z,9.30
2023-04-26T19:20:29.646Z,9.10
2023-04-26T19:22:59.466Z,8.80
2023-04-26T19:25:30.422Z,8.70
2023-04-26T19:27:59.962Z,8.70
2023-04-26T19:30:29.684Z,8.70
2023-04-26T19:33:00.867Z,8.80
2023-04-26T19:35:30.830Z,8.80
2023-04-26T19:38:00.674Z,8.90
2023-04-26T19:40:30.609Z,8.80
2023-04-26T19:43:00.238Z,8.60
2023-04-26T19:45:29.988Z,8.50
2023-04-26T19:48:01.493Z,8.50
2023-04-26T19:50:31.352Z,8.60
2023-04-26T19:53:01.161Z,8.60
2023-04-26T19:55:31.013Z,8.60
2023-04-26T19:58:00.807Z,8.50
2023-04-26T20:00:31.108Z,8.30
2023-04-26T20:03:02.917Z,8.20
2023-04-26T20:05:33.642Z,8.20
2023-04-26T20:08:03.449Z,8.30
2023-04-26T20:10:33.566Z,8.30
2023-04-26T20:13:03.718Z,8.20
2023-04-26T20:15:34.061Z,8.20
2023-04-26T20:18:05.212Z,8.30
2023-04-26T20:20:35.082Z,8.20
2023-04-26T20:23:04.861Z,8.00
2023-04-26T20:25:34.926Z,7.90
2023-04-26T20:28:04.527Z,8.00
2023-04-26T20:30:34.487Z,8.10
2023-04-26T20:33:05.406Z,8.20
2023-04-26T20:35:35.214Z,8.20
2023-04-26T20:38:04.954Z,8.10
2023-04-26T20:40:34.749Z,8.10
2023-04-26T20:43:04.507Z,8.00
2023-04-26T20:45:34.298Z,7.80
2023-04-26T20:48:05.291Z,7.70
2023-04-26T20:50:36.587Z,7.70
2023-04-26T20:53:06.552Z,7.60
2023-04-26T20:55:36.595Z,7.70
2023-04-26T20:58:06.106Z,7.90
2023-04-26T21:00:35.898Z,8.00
2023-04-26T21:03:07.021Z,8.10
2023-04-26T21:05:36.783Z,8.10
2023-04-26T21:08:06.629Z,8.00
2023-04-26T21:10:36.600Z,7.90
2023-04-26T21:13:06.553Z,7.90
2023-04-26T21:15:36.515Z,7.80
2023-04-26T21:18:08.521Z,7.80
2023-04-26T21:20:38.299Z,7.80
2023-04-26T21:23:08.164Z,7.80
2023-04-26T21:25:37.909Z,7.70
2023-04-26T21:28:08.100Z,7.70
2023-04-26T21:30:37.940Z,7.70
2023-04-26T21:33:08.849Z,7.60
2023-04-26T21:35:39.213Z,7.50
2023-04-26T21:38:09.103Z,7.50
2023-04-26T21:40:38.872Z,7.40
2023-04-26T21:43:08.640Z,7.50
2023-04-26T21:45:39.760Z,7.50
2023-04-26T21:48:10.688Z,7.50
2023-04-26T21:50:40.482Z,7.60
2023-04-26T21:53:10.465Z,7.60
2023-04-26T21:55:39.973Z,7.60
2023-04-26T21:58:09.780Z,7.60
2023-04-26T22:00:39.523Z,7.60
2023-04-26T22:03:10.829Z,7.60
2023-04-26T22:05:40.571Z,7.50
2023-04-26T22:08:10.368Z,7.60
2023-04-26T22:10:40.130Z,7.60
2023-04-26T22:13:11.465Z,7.60
2023-04-26T22:15:41.341Z,7.60
2023-04-26T22:18:12.411Z,7.60
2023-04-26T22:20:42.158Z,7.60
2023-04-26T22:23:12.454Z,7.70
2023-04-26T22:25:42.220Z,7.60
2023-04-26T22:28:11.972Z,7.60
2023-04-26T22:30:41.728Z,7.50
2023-04-26T22:33:12.632Z,7.60
2023-04-26T22:35:42.313Z,7.60
2023-04-26T22:38:12.053Z,7.80
2023-04-26T22:40:42.322Z,7.80
2023-04-26T22:43:12.078Z,7.80
2023-04-26T22:45:43.285Z,7.80
2023-04-26T22:48:14.477Z,7.40
2023-04-26T22:50:44.264Z,7.40
2023-04-26T22:53:13.982Z,7.40
2023-04-26T22:55:43.754Z,7.30
2023-04-26T22:58:13.573Z,7.50
2023-04-26T23:00:43.354Z,7.40
2023-04-26T23:03:14.468Z,7.40
2023-04-26T23:05:44.324Z,7.40
2023-04-26T23:08:14.127Z,7.50
2023-04-26T23:10:43.839Z,7.40
2023-04-26T23:13:14.507Z,7.40
2023-04-26T23:15:43.996Z,7.30
2023-04-26T23:18:16.176Z,7.10
2023-04-26T23:20:46.390Z,7.10
2023-04-26T23:23:16.156Z,7.10
2023-04-26T23:25:46.031Z,7.10
2023-04-26T23:28:15.888Z,7.10
2023-04-26T23:30:46.057Z,6.90
2023-04-26T23:33:17.218Z,7.00
2023-04-26T23:35:47.014Z,6.90
2023-04-26T23:38:16.746Z,6.80
2023-04-26T23:40:46.639Z,6.70
2023-04-26T23:43:16.391Z,6.70
2023-04-26T23:45:48.239Z,6.80
2023-04-26T23:48:19.464Z,6.90
2023-04-26T23:50:49.215Z,7.00
2023-04-26T23:53:19.031Z,7.00
2023-04-26T23:55:48.819Z,7.00
2023-04-26T23:58:18.553Z,6.90
